createdAt,value
2022-09-11T00:02:24.363Z,12.77
2022-09-11T00:05:11.241Z,12.77
2022-09-11T00:07:58.197Z,12.74
2022-09-11T00:10:45.838Z,12.73
2022-09-11T00:13:34.447Z,12.74
2022-09-11T00:16:24.204Z,12.71
2022-09-11T00:19:13.683Z,12.71
2022-09-11T00:22:00.051Z,12.79
2022-09-11T00:24:46.677Z,12.83
2022-09-11T00:27:33.566Z,12.88
2022-09-11T00:30:21.645Z,12.88
2022-09-11T00:33:08.291Z,12.85
2022-09-11T00:35:58.461Z,12.83
2022-09-11T00:38:46.410Z,12.85
2022-09-11T00:41:36.319Z,12.79
2022-09-11T00:45:00.382Z,12.79
2022-09-11T00:47:50.669Z,12.80
2022-09-11T00:50:38.423Z,12.78
2022-09-11T00:53:28.008Z,12.86
2022-09-11T00:56:14.967Z,12.84
2022-09-11T00:59:04.860Z,12.88
2022-09-11T01:01:51.683Z,12.90
2022-09-11T01:04:39.984Z,12.89
2022-09-11T01:07:28.302Z,12.88
2022-09-11T01:10:17.332Z,12.86
2022-09-11T01:13:15.497Z,12.88
2022-09-11T01:16:10.762Z,12.87
2022-09-11T01:19:07.703Z,12.86
2022-09-11T01:22:31.737Z,12.90
2022-09-11T01:25:28.580Z,12.94
2022-09-11T01:28:21.927Z,13.06
2022-09-11T01:31:13.731Z,13.14
2022-09-11T01:34:06.856Z,13.18
2022-09-11T01:36:59.797Z,13.27
2022-09-11T01:39:53.270Z,13.30
2022-09-11T01:42:46.098Z,13.36
2022-09-11T01:45:37.376Z,13.45
2022-09-11T01:48:30.386Z,13.47
2022-09-11T01:51:22.325Z,13.50
2022-09-11T01:54:14.728Z,13.58
2022-09-11T01:57:07.067Z,13.59
2022-09-11T01:59:56.874Z,13.52
2022-09-11T02:02:50.903Z,13.51
2022-09-11T02:05:45.900Z,13.61
2022-09-11T02:08:45.313Z,13.63
2022-09-11T02:11:34.892Z,13.60
2022-09-11T02:14:29.735Z,13.60
2022-09-11T02:17:24.682Z,13.56
2022-09-11T02:20:13.608Z,13.53
2022-09-11T02:23:00.435Z,13.52
2022-09-11T02:25:48.251Z,13.57
2022-09-11T02:28:35.034Z,13.53
2022-09-11T02:31:22.900Z,13.48
2022-09-11T02:34:12.172Z,13.54
2022-09-11T02:37:18.061Z,13.57
2022-09-11T02:40:44.715Z,13.64
2022-09-11T02:43:44.395Z,13.74
2022-09-11T02:46:57.192Z,13.69
2022-09-11T02:49:56.741Z,13.71
2022-09-11T02:52:51.044Z,13.78
2022-09-11T02:55:54.262Z,13.81
2022-09-11T02:58:46.821Z,13.96
2022-09-11T03:01:47.961Z,13.80
2022-09-11T03:04:36.971Z,13.80
2022-09-11T03:07:25.597Z,13.88
2022-09-11T03:10:15.383Z,13.87
2022-09-11T03:13:13.737Z,13.82
2022-09-11T03:16:07.036Z,13.76
2022-09-11T03:18:54.107Z,13.60
2022-09-11T03:21:40.981Z,13.80
2022-09-11T03:24:27.360Z,13.64
2022-09-11T03:27:15.513Z,13.62
2022-09-11T03:30:02.294Z,13.57
2022-09-11T03:32:49.300Z,13.52
2022-09-11T03:35:36.150Z,13.55
2022-09-11T03:38:22.910Z,13.57
2022-09-11T03:41:10.890Z,13.52
2022-09-11T03:43:59.546Z,13.61
2022-09-11T03:46:46.091Z,13.74
2022-09-11T03:49:33.963Z,13.74
2022-09-11T03:52:20.640Z,13.75
2022-09-11T03:55:08.862Z,13.77
2022-09-11T03:58:21.424Z,13.82
2022-09-11T04:01:11.544Z,13.83
2022-09-11T04:03:59.658Z,13.87
2022-09-11T04:06:52.051Z,13.89
2022-09-11T04:09:38.787Z,13.98
2022-09-11T04:12:25.873Z,13.94
2022-09-11T04:15:12.621Z,14.05
2022-09-11T04:18:05.302Z,13.98
2022-09-11T04:20:53.387Z,13.95
2022-09-11T04:23:41.747Z,13.88
2022-09-11T04:26:29.818Z,13.92
2022-09-11T04:29:26.563Z,13.90
2022-09-11T04:32:15.192Z,13.83
2022-09-11T04:35:04.059Z,13.95
2022-09-11T04:37:56.463Z,14.01
2022-09-11T04:40:43.346Z,13.96
2022-09-11T04:43:31.691Z,14.01
2022-09-11T04:46:20.550Z,14.13
2022-09-11T04:49:08.348Z,14.09
2022-09-11T04:51:57.904Z,14.06
2022-09-11T04:54:46.280Z,14.07
2022-09-11T04:57:35.870Z,14.10
2022-09-11T05:00:25.161Z,13.92
2022-09-11T05:03:11.890Z,14.02
2022-09-11T05:05:58.612Z,14.09
2022-09-11T05:08:48.182Z,14.09
2022-09-11T05:11:38.350Z,14.18
2022-09-11T05:14:25.575Z,14.13
2022-09-11T05:17:13.569Z,13.99
2022-09-11T05:20:03.696Z,14.14
2022-09-11T05:22:59.535Z,14.04
2022-09-11T05:26:04.124Z,14.02
2022-09-11T05:29:07.794Z,14.15
2022-09-11T05:32:12.372Z,14.11
2022-09-11T05:35:16.013Z,14.27
2022-09-11T05:38:06.265Z,14.26
2022-09-11T05:40:57.785Z,14.33
2022-09-11T05:43:47.364Z,14.34
2022-09-11T05:46:42.334Z,14.29
2022-09-11T05:49:35.175Z,14.38
2022-09-11T05:52:25.463Z,14.39
2022-09-11T05:55:13.924Z,14.45
2022-09-11T05:58:03.827Z,14.59
2022-09-11T06:01:05.682Z,14.53
2022-09-11T06:03:56.656Z,14.59
2022-09-11T06:06:50.255Z,14.60
2022-09-11T06:09:47.428Z,14.55
2022-09-11T06:12:38.758Z,14.58
2022-09-11T06:15:45.671Z,14.58
2022-09-11T06:18:36.187Z,14.57
2022-09-11T06:21:31.647Z,14.69
2022-09-11T06:24:45.617Z,14.60
2022-09-11T06:27:34.913Z,14.65
2022-09-11T06:30:22.974Z,14.58
2022-09-11T06:33:13.111Z,14.75
2022-09-11T06:36:04.566Z,14.75
2022-09-11T06:38:57.083Z,14.55
2022-09-11T06:41:47.429Z,14.83
2022-09-11T06:44:36.338Z,14.73
2022-09-11T06:47:23.718Z,14.84
2022-09-11T06:50:14.591Z,15.03
2022-09-11T06:53:27.413Z,15.02
2022-09-11T06:56:16.787Z,15.04
2022-09-11T06:59:05.473Z,15.25
2022-09-11T07:01:53.140Z,15.45
2022-09-11T07:04:40.703Z,15.70
2022-09-11T07:07:28.740Z,15.68
2022-09-11T07:10:15.672Z,15.77
2022-09-11T07:13:02.309Z,15.87
2022-09-11T07:15:50.116Z,16.00
2022-09-11T07:18:39.635Z,16.05
2022-09-11T07:21:30.324Z,16.03
2022-09-11T07:24:22.018Z,16.09
2022-09-11T07:27:09.068Z,16.10
2022-09-11T07:29:56.689Z,16.16
2022-09-11T07:32:49.690Z,16.16
2022-09-11T07:35:38.201Z,16.11
2022-09-11T07:38:25.019Z,16.12
2022-09-11T07:41:14.895Z,16.17
2022-09-11T07:44:03.071Z,16.27
2022-09-11T07:46:51.594Z,16.28
2022-09-11T07:49:38.348Z,16.36
2022-09-11T07:52:25.729Z,16.49
2022-09-11T07:55:17.163Z,16.66
2022-09-11T07:58:05.906Z,16.70
2022-09-11T08:01:00.672Z,16.53
2022-09-11T08:03:49.440Z,16.49
2022-09-11T08:06:37.834Z,16.47
2022-09-11T08:09:32.887Z,16.68
2022-09-11T08:12:23.995Z,16.63
2022-09-11T08:15:12.210Z,16.64
2022-09-11T08:18:00.975Z,16.74
2022-09-11T08:20:51.606Z,16.86
2022-09-11T08:23:42.702Z,17.00
2022-09-11T08:26:31.892Z,17.10
2022-09-11T08:29:19.214Z,17.35
2022-09-11T08:32:09.036Z,17.35
2022-09-11T08:34:55.454Z,17.43
2022-09-11T08:37:43.343Z,17.62
2022-09-11T08:40:31.854Z,17.71
2022-09-11T08:43:23.922Z,17.80
2022-09-11T08:46:12.221Z,17.92
2022-09-11T08:49:07.624Z,17.65
2022-09-11T08:51:57.844Z,17.73
2022-09-11T08:54:47.939Z,17.56
2022-09-11T08:57:46.196Z,17.72
2022-09-11T09:00:43.181Z,17.62
2022-09-11T09:03:56.174Z,17.89
2022-09-11T09:06:55.555Z,18.02
2022-09-11T09:09:56.843Z,17.85
2022-09-11T09:12:54.108Z,17.92
2022-09-11T09:15:49.082Z,17.98
2022-09-11T09:18:41.976Z,18.14
2022-09-11T09:21:34.956Z,18.09
2022-09-11T09:24:24.235Z,18.18
2022-09-11T09:27:20.533Z,18.24
2022-09-11T09:30:15.363Z,18.31
2022-09-11T09:33:11.406Z,18.29
2022-09-11T09:36:13.437Z,18.48
2022-09-11T09:39:00.521Z,18.46
2022-09-11T09:42:25.876Z,18.40
2022-09-11T09:45:38.402Z,18.49
2022-09-11T09:48:25.711Z,18.47
2022-09-11T09:51:14.897Z,18.29
2022-09-11T09:54:04.311Z,18.43
2022-09-11T09:56:58.140Z,18.48
2022-09-11T09:59:51.863Z,18.38
2022-09-11T10:02:40.701Z,18.33
2022-09-11T10:05:31.273Z,18.36
2022-09-11T10:08:34.060Z,18.47
2022-09-11T10:11:30.039Z,18.41
2022-09-11T10:14:49.386Z,18.36
2022-09-11T10:17:35.298Z,18.57
2022-09-11T10:20:27.784Z,18.46
2022-09-11T10:23:25.725Z,18.56
2022-09-11T10:26:17.919Z,18.46
2022-09-11T10:29:10.011Z,18.30
2022-09-11T10:31:59.339Z,18.32
2022-09-11T10:34:48.793Z,18.42
2022-09-11T10:37:35.404Z,18.60
2022-09-11T10:40:24.563Z,18.49
2022-09-11T10:43:25.587Z,18.65
2022-09-11T10:46:28.357Z,18.85
2022-09-11T10:49:20.484Z,18.97
2022-09-11T10:52:19.096Z,19.10
2022-09-11T10:55:15.344Z,19.04
2022-09-11T10:58:08.669Z,18.80
2022-09-11T11:00:55.579Z,18.44
2022-09-11T11:03:42.232Z,18.47
2022-09-11T11:06:51.002Z,18.47
2022-09-11T11:09:57.504Z,18.55
2022-09-11T11:12:55.117Z,18.57
2022-09-11T11:15:58.479Z,18.72
2022-09-11T11:19:06.808Z,18.96
2022-09-11T11:22:07.050Z,19.36
2022-09-11T11:25:08.505Z,19.28
2022-09-11T11:28:28.330Z,19.46
2022-09-11T11:31:35.775Z,19.64
2022-09-11T11:34:35.448Z,19.57
2022-09-11T11:37:28.038Z,19.54
2022-09-11T11:40:23.664Z,19.32
2022-09-11T11:43:13.352Z,19.22
2022-09-11T11:46:04.689Z,19.10
2022-09-11T11:48:59.181Z,19.40
2022-09-11T11:51:52.445Z,19.30
2022-09-11T11:54:44.781Z,19.37
2022-09-11T11:57:41.717Z,19.39
2022-09-11T12:00:30.263Z,19.39
2022-09-11T12:03:23.863Z,19.24
2022-09-11T12:06:11.717Z,19.43
2022-09-11T12:08:58.873Z,19.40
2022-09-11T12:11:49.001Z,19.26
2022-09-11T12:14:37.453Z,19.22
2022-09-11T12:17:28.269Z,19.10
2022-09-11T12:20:29.968Z,18.88
2022-09-11T12:23:56.096Z,18.85
2022-09-11T12:26:43.169Z,18.83
2022-09-11T12:29:58.009Z,18.66
2022-09-11T12:32:47.031Z,18.56
2022-09-11T12:35:42.020Z,18.78
2022-09-11T12:38:38.165Z,18.80
2022-09-11T12:41:29.708Z,19.05
2022-09-11T12:44:31.843Z,19.29
2022-09-11T12:47:23.508Z,19.47
2022-09-11T12:50:19.596Z,19.56
2022-09-11T12:53:13.554Z,19.79
2022-09-11T12:56:02.114Z,19.98
2022-09-11T12:58:54.710Z,19.96
2022-09-11T13:01:44.925Z,20.21
2022-09-11T13:04:34.981Z,20.41
2022-09-11T13:07:29.397Z,20.73
2022-09-11T13:10:30.463Z,20.75
2022-09-11T13:13:45.027Z,20.66
2022-09-11T13:16:34.903Z,20.70
2022-09-11T13:19:21.938Z,20.44
2022-09-11T13:22:23.655Z,20.35
2022-09-11T13:25:14.495Z,20.23
2022-09-11T13:28:02.597Z,20.05
2022-09-11T13:30:55.696Z,20.06
2022-09-11T13:33:43.176Z,19.91
2022-09-11T13:36:31.674Z,19.64
2022-09-11T13:39:21.235Z,19.32
2022-09-11T13:42:16.148Z,18.67
2022-09-11T13:45:05.202Z,18.23
2022-09-11T13:47:54.772Z,17.96
2022-09-11T13:50:41.865Z,17.95
2022-09-11T13:53:28.749Z,17.88
2022-09-11T13:56:22.009Z,17.70
2022-09-11T13:59:38.482Z,17.81
2022-09-11T14:02:50.946Z,17.94
2022-09-11T14:05:37.924Z,17.82
2022-09-11T14:08:36.910Z,17.65
2022-09-11T14:11:29.526Z,17.62
2022-09-11T14:14:23.756Z,17.72
2022-09-11T14:17:13.875Z,17.62
2022-09-11T14:20:03.906Z,17.64
2022-09-11T14:22:56.306Z,17.44
2022-09-11T14:26:05.745Z,17.30
2022-09-11T14:29:03.773Z,17.41
2022-09-11T14:31:51.954Z,17.16
2022-09-11T14:34:38.746Z,16.99
2022-09-11T14:37:29.218Z,16.81
2022-09-11T14:40:18.216Z,16.66
2022-09-11T14:43:06.659Z,16.61
2022-09-11T14:45:55.412Z,16.57
2022-09-11T14:48:44.132Z,16.61
2022-09-11T14:51:30.834Z,16.72
2022-09-11T14:54:17.662Z,16.76
2022-09-11T14:57:04.422Z,16.76
2022-09-11T14:59:52.451Z,16.79
2022-09-11T15:02:40.475Z,16.95
2022-09-11T15:05:27.442Z,16.86
2022-09-11T15:08:14.149Z,16.87
2022-09-11T15:11:00.602Z,16.87
2022-09-11T15:14:10.821Z,16.88
2022-09-11T15:16:57.628Z,16.83
2022-09-11T15:19:47.614Z,16.87
2022-09-11T15:22:35.461Z,16.95
2022-09-11T15:25:23.962Z,16.95
2022-09-11T15:28:11.097Z,17.01
2022-09-11T15:30:58.923Z,16.96
2022-09-11T15:33:47.164Z,17.03
2022-09-11T15:36:38.229Z,16.96
2022-09-11T15:39:24.971Z,16.99
2022-09-11T15:42:11.640Z,17.08
2022-09-11T15:44:58.189Z,16.89
2022-09-11T15:47:45.574Z,16.85
2022-09-11T15:50:32.526Z,16.73
2022-09-11T15:53:21.674Z,16.71
2022-09-11T15:56:10.225Z,16.75
2022-09-11T15:58:58.897Z,16.74
2022-09-11T16:01:46.550Z,16.73
2022-09-11T16:04:33.746Z,16.73
2022-09-11T16:07:20.647Z,16.61
2022-09-11T16:10:09.518Z,16.58
2022-09-11T16:12:58.835Z,16.63
2022-09-11T16:15:46.083Z,16.69
2022-09-11T16:18:37.553Z,16.68
2022-09-11T16:21:24.394Z,16.73
2022-09-11T16:24:14.780Z,16.86
2022-09-11T16:27:02.834Z,16.77
2022-09-11T16:32:56.776Z,16.68
2022-09-11T16:35:43.681Z,16.74
2022-09-11T16:38:30.893Z,16.77
2022-09-11T16:41:19.489Z,16.77
2022-09-11T16:44:09.048Z,16.87
2022-09-11T16:46:55.697Z,16.67
2022-09-11T16:50:03.279Z,16.59
2022-09-11T16:52:48.824Z,16.45
2022-09-11T16:55:35.690Z,16.30
2022-09-11T16:58:22.967Z,16.19
2022-09-11T17:01:14.724Z,16.12
2022-09-11T17:04:01.132Z,16.00
2022-09-11T17:06:48.009Z,15.88
2022-09-11T17:09:34.917Z,15.82
2022-09-11T17:12:22.398Z,15.78
2022-09-11T17:15:10.518Z,15.67
2022-09-11T17:17:58.394Z,15.59
2022-09-11T17:20:45.355Z,15.60
2022-09-11T17:23:32.250Z,15.56
2022-09-11T17:26:19.393Z,15.58
2022-09-11T17:29:07.731Z,15.54
2022-09-11T17:32:16.838Z,15.55
2022-09-11T17:35:03.305Z,15.56
2022-09-11T17:37:50.794Z,15.52
2022-09-11T17:40:39.087Z,15.51
2022-09-11T17:43:26.448Z,15.37
2022-09-11T17:46:15.195Z,15.53
2022-09-11T17:49:02.130Z,15.48
2022-09-11T17:51:50.165Z,15.40
2022-09-11T17:54:36.854Z,15.29
2022-09-11T17:57:23.770Z,15.22
2022-09-11T18:00:12.199Z,15.13
2022-09-11T18:02:59.689Z,15.05
2022-09-11T18:05:46.356Z,15.00
2022-09-11T18:08:34.596Z,14.97
2022-09-11T18:11:21.283Z,14.87
2022-09-11T18:14:09.237Z,14.81
2022-09-11T18:16:55.796Z,14.75
2022-09-11T18:19:42.558Z,14.70
2022-09-11T18:22:29.926Z,14.65
2022-09-11T18:25:21.831Z,14.59
2022-09-11T18:28:09.900Z,14.56
2022-09-11T18:31:02.647Z,14.51
2022-09-11T18:33:54.735Z,14.46
2022-09-11T18:36:42.463Z,14.42
2022-09-11T18:39:29.271Z,14.37
2022-09-11T18:42:18.165Z,14.32
2022-09-11T18:45:05.450Z,14.27
2022-09-11T18:47:54.614Z,14.23
2022-09-11T18:50:41.362Z,14.18
2022-09-11T18:53:28.125Z,14.14
2022-09-11T18:56:14.808Z,14.10
2022-09-11T18:59:03.471Z,14.06
2022-09-11T19:01:50.490Z,14.00
2022-09-11T19:04:37.153Z,13.96
2022-09-11T19:07:23.915Z,13.92
2022-09-11T19:10:12.528Z,13.89
2022-09-11T19:13:00.211Z,13.86
2022-09-11T19:15:56.300Z,13.83
2022-09-11T19:18:42.768Z,13.79
2022-09-11T19:21:30.073Z,13.74
2022-09-11T19:24:17.065Z,13.69
2022-09-11T19:27:03.756Z,13.68
2022-09-11T19:29:50.407Z,13.68
2022-09-11T19:32:38.518Z,13.69
2022-09-11T19:35:25.657Z,13.65
2022-09-11T19:38:13.195Z,13.59
2022-09-11T19:41:00.867Z,13.54
2022-09-11T19:43:48.065Z,13.51
2022-09-11T19:46:37.477Z,13.45
2022-09-11T19:49:25.598Z,13.37
2022-09-11T19:52:13.864Z,13.31
2022-09-11T19:55:00.600Z,13.34
2022-09-11T19:57:47.534Z,13.32
2022-09-11T20:00:37.768Z,13.27
2022-09-11T20:03:24.640Z,13.22
2022-09-11T20:06:14.038Z,13.21
2022-09-11T20:12:09.203Z,13.20
2022-09-11T20:14:55.792Z,13.17
2022-09-11T20:17:44.586Z,13.08
2022-09-11T20:20:31.614Z,13.02
2022-09-11T20:23:19.589Z,12.98
2022-09-11T20:26:16.263Z,13.07
2022-09-11T20:29:06.910Z,13.08
2022-09-11T20:31:55.192Z,13.13
2022-09-11T20:34:45.402Z,13.15
2022-09-11T20:37:34.130Z,13.08
2022-09-11T20:40:22.180Z,13.06
2022-09-11T20:43:09.010Z,13.02
2022-09-11T20:45:55.872Z,13.25
2022-09-11T20:48:42.740Z,13.04
2022-09-11T20:51:29.489Z,13.07
2022-09-11T20:54:16.552Z,13.06
2022-09-11T20:57:04.624Z,13.14
2022-09-11T20:59:51.363Z,13.08
2022-09-11T21:02:38.193Z,13.08
2022-09-11T21:05:24.823Z,12.95
2022-09-11T21:08:11.580Z,13.04
2022-09-11T21:11:02.750Z,12.93
2022-09-11T21:13:50.697Z,12.87
2022-09-11T21:16:37.371Z,12.90
2022-09-11T21:19:24.074Z,12.77
2022-09-11T21:22:10.899Z,12.72
2022-09-11T21:24:57.574Z,12.65
2022-09-11T21:27:44.244Z,12.72
2022-09-11T21:30:32.496Z,12.56
2022-09-11T21:33:19.829Z,12.40
2022-09-11T21:36:07.013Z,12.47
2022-09-11T21:38:53.819Z,12.31
2022-09-11T21:41:40.669Z,12.64
2022-09-11T21:44:27.294Z,12.45
2022-09-11T21:47:16.229Z,12.41
2022-09-11T21:50:07.195Z,12.37
2022-09-11T21:52:54.672Z,12.23
2022-09-11T21:55:44.249Z,12.26
2022-09-11T21:58:31.149Z,12.20
2022-09-11T22:01:17.537Z,12.18
2022-09-11T22:04:05.769Z,12.12
2022-09-11T22:06:52.393Z,12.06
2022-09-11T22:09:39.166Z,12.07
2022-09-11T22:12:26.266Z,12.03
2022-09-11T22:15:13.048Z,11.95
2022-09-11T22:17:59.810Z,12.14
2022-09-11T22:20:47.935Z,12.06
2022-09-11T22:23:35.354Z,12.04
2022-09-11T22:26:24.569Z,12.12
2022-09-11T22:29:11.149Z,11.94
2022-09-11T22:31:58.047Z,11.77
2022-09-11T22:34:44.727Z,11.67
2022-09-11T22:37:32.920Z,11.64
2022-09-11T22:40:19.750Z,11.64
2022-09-11T22:43:06.535Z,11.75
2022-09-11T22:45:53.850Z,11.73
2022-09-11T22:48:41.157Z,11.74
2022-09-11T22:51:28.102Z,11.73
2022-09-11T22:54:16.763Z,11.66
2022-09-11T22:57:03.262Z,11.69
2022-09-11T22:59:49.994Z,11.66
2022-09-11T23:02:37.308Z,11.50
2022-09-11T23:05:49.875Z,11.65
2022-09-11T23:08:39.505Z,11.58
2022-09-11T23:11:29.216Z,11.58
2022-09-11T23:14:15.950Z,11.54
2022-09-11T23:17:02.481Z,11.53
2022-09-11T23:19:49.291Z,11.52
2022-09-11T23:22:36.194Z,11.46
2022-09-11T23:25:25.219Z,11.34
2022-09-11T23:28:13.180Z,11.34
2022-09-11T23:30:59.910Z,11.38
2022-09-11T23:33:47.058Z,11.33
2022-09-11T23:36:34.855Z,11.33
2022-09-11T23:39:21.346Z,11.34
2022-09-11T23:42:08.053Z,11.25
2022-09-11T23:44:56.214Z,11.22
2022-09-11T23:47:43.280Z,11.18
2022-09-11T23:50:30.150Z,11.16
2022-09-11T23:53:16.902Z,11.11
2022-09-11T23:56:04.233Z,11.06
2022-09-11T23:58:51.612Z,10.98
